sensor_id;sensor_type;location;lat;lon;timestamp;pressure;altitude;pressure_sealevel;temperature;humidity
71791;BME280;59638;52.126;5.434;2022-12-05T00:00:52;102048.88;;;2.76;97.54
71791;BME280;59638;52.126;5.434;2022-12-05T00:03:19;102051.41;;;2.77;97.59
71791;BME280;59638;52.126;5.434;2022-12-05T00:05:46;102054.81;;;2.79;97.20
71791;BME280;59638;52.126;5.434;2022-12-05T00:08:12;102048.69;;;2.80;97.50
71791;BME280;59638;52.126;5.434;2022-12-05T00:10:39;102047.78;;;2.81;97.13
71791;BME280;59638;52.126;5.434;2022-12-05T00:13:06;102045.97;;;2.83;97.35
71791;BME280;59638;52.126;5.434;2022-12-05T00:15:37;102047.69;;;2.84;97.37
71791;BME280;59638;52.126;5.434;2022-12-05T00:18:04;102054.59;;;2.85;96.94
71791;BME280;59638;52.126;5.434;2022-12-05T00:20:31;102048.47;;;2.86;97.49
71791;BME280;59638;52.126;5.434;2022-12-05T00:22:57;102049.38;;;2.85;96.77
71791;BME280;59638;52.126;5.434;2022-12-05T00:25:24;102051.06;;;2.86;97.28
71791;BME280;59638;52.126;5.434;2022-12-05T00:27:50;102044.03;;;2.88;97.68
71791;BME280;59638;52.126;5.434;2022-12-05T00:30:16;102050.94;;;2.89;97.13
71791;BME280;59638;52.126;5.434;2022-12-05T00:32:43;102045.72;;;2.89;97.18
71791;BME280;59638;52.126;5.434;2022-12-05T00:35:09;102050.94;;;2.89;97.44
71791;BME280;59638;52.126;5.434;2022-12-05T00:37:36;102050.03;;;2.90;97.33
71791;BME280;59638;52.126;5.434;2022-12-05T00:40:03;102047.44;;;2.90;97.23
71791;BME280;59638;52.126;5.434;2022-12-05T00:42:29;102042.22;;;2.90;97.26
71791;BME280;59638;52.126;5.434;2022-12-05T00:44:55;102045.72;;;2.89;97.35
71791;BME280;59638;52.126;5.434;2022-12-05T00:47:22;102042.22;;;2.90;97.18
71791;BME280;59638;52.126;5.434;2022-12-05T00:49:48;102050.94;;;2.89;97.12
71791;BME280;59638;52.126;5.434;2022-12-05T00:52:14;102048.31;;;2.91;97.34
71791;BME280;59638;52.126;5.434;2022-12-05T00:54:41;102041.38;;;2.90;97.38
71791;BME280;59638;52.126;5.434;2022-12-05T00:57:07;102045.72;;;2.89;97.70
71791;BME280;59638;52.126;5.434;2022-12-05T00:59:33;102049.25;;;2.88;97.88
71791;BME280;59638;52.126;5.434;2022-12-05T01:02:00;102049.25;;;2.88;98.06
71791;BME280;59638;52.126;5.434;2022-12-05T01:04:26;102051.88;;;2.88;97.70
71791;BME280;59638;52.126;5.434;2022-12-05T01:06:55;102042.34;;;2.87;98.03
71791;BME280;59638;52.126;5.434;2022-12-05T01:09:21;102045.88;;;2.86;98.17
71791;BME280;59638;52.126;5.434;2022-12-05T01:11:48;102045.00;;;2.86;98.18
71791;BME280;59638;52.126;5.434;2022-12-05T01:14:17;102048.53;;;2.85;98.45
71791;BME280;59638;52.126;5.434;2022-12-05T01:16:45;102051.19;;;2.83;98.50
71791;BME280;59638;52.126;5.434;2022-12-05T01:19:15;102045.13;;;2.83;98.16
71791;BME280;59638;52.126;5.434;2022-12-05T01:21:42;102051.19;;;2.83;98.16
71791;BME280;59638;52.126;5.434;2022-12-05T01:24:10;102045.97;;;2.83;98.46
71791;BME280;59638;52.126;5.434;2022-12-05T01:26:37;102052.03;;;2.84;98.40
71791;BME280;59638;52.126;5.434;2022-12-05T01:29:03;102049.47;;;2.82;98.50
71791;BME280;59638;52.126;5.434;2022-12-05T01:31:32;102052.09;;;2.82;98.98
71791;BME280;59638;52.126;5.434;2022-12-05T01:34:00;102059.06;;;2.82;99.16
71791;BME280;59638;52.126;5.434;2022-12-05T01:36:28;102047.78;;;2.81;99.44
71791;BME280;59638;52.126;5.434;2022-12-05T01:38:55;102051.25;;;2.82;98.87
71791;BME280;59638;52.126;5.434;2022-12-05T01:41:24;102058.22;;;2.81;98.97
71791;BME280;59638;52.126;5.434;2022-12-05T01:43:59;102053.91;;;2.80;99.00
71791;BME280;59638;52.126;5.434;2022-12-05T01:46:28;102053.84;;;2.82;99.84
71791;BME280;59638;52.126;5.434;2022-12-05T01:49:16;102058.22;;;2.81;99.53
71791;BME280;59638;52.126;5.434;2022-12-05T01:51:48;102059.91;;;2.82;100.00
71791;BME280;59638;52.126;5.434;2022-12-05T01:54:16;102056.41;;;2.83;99.61
71791;BME280;59638;52.126;5.434;2022-12-05T01:56:50;102056.41;;;2.83;100.00
71791;BME280;59638;52.126;5.434;2022-12-05T01:59:19;102056.41;;;2.83;99.82
71791;BME280;59638;52.126;5.434;2022-12-05T02:01:46;102058.13;;;2.84;100.00
71791;BME280;59638;52.126;5.434;2022-12-05T02:04:13;102058.13;;;2.84;99.72
71791;BME280;59638;52.126;5.434;2022-12-05T02:06:40;102062.44;;;2.85;99.96
71791;BME280;59638;52.126;5.434;2022-12-05T02:09:07;102048.53;;;2.85;99.86
71791;BME280;59638;52.126;5.434;2022-12-05T02:11:35;102054.59;;;2.85;100.00
71791;BME280;59638;52.126;5.434;2022-12-05T02:17:11;102053.69;;;2.86;100.00
71791;BME280;59638;52.126;5.434;2022-12-05T02:28:45;102047.56;;;2.87;100.00
71791;BME280;59638;52.126;5.434;2022-12-05T02:31:50;102054.47;;;2.88;100.00
71791;BME280;59638;52.126;5.434;2022-12-05T02:34:25;102045.72;;;2.89;100.00
71791;BME280;59638;52.126;5.434;2022-12-05T02:37:01;102042.22;;;2.90;100.00
71791;BME280;59638;52.126;5.434;2022-12-05T02:46:59;102040.28;;;2.95;100.00
71791;BME280;59638;52.126;5.434;2022-12-05T02:49:29;102040.13;;;3.00;100.00
71791;BME280;59638;52.126;5.434;2022-12-05T02:51:58;102046.09;;;3.02;100.00
71791;BME280;59638;52.126;5.434;2022-12-05T02:54:28;102040.88;;;3.02;100.00
71791;BME280;59638;52.126;5.434;2022-12-05T02:56:57;102035.59;;;3.04;100.00
71791;BME280;59638;52.126;5.434;2022-12-05T02:59:25;102038.19;;;3.05;100.00
71791;BME280;59638;52.126;5.434;2022-12-05T03:01:51;102041.56;;;3.07;100.00
71791;BME280;59638;52.126;5.434;2022-12-05T03:04:20;102043.19;;;3.10;100.00
71791;BME280;59638;52.126;5.434;2022-12-05T03:06:51;102036.19;;;3.12;100.00
71791;BME280;59638;52.126;5.434;2022-12-05T03:12:04;102046.38;;;3.18;100.00
71791;BME280;59638;52.126;5.434;2022-12-05T03:14:38;102043.75;;;3.18;100.00
71791;BME280;59638;52.126;5.434;2022-12-05T03:17:10;102048.06;;;3.19;100.00
71791;BME280;59638;52.126;5.434;2022-12-05T03:22:23;102048.84;;;3.21;100.00
71791;BME280;59638;52.126;5.434;2022-12-05T03:24:52;102054.06;;;3.21;100.00
71791;BME280;59638;52.126;5.434;2022-12-05T03:27:44;102048.78;;;3.22;100.00
71791;BME280;59638;52.126;5.434;2022-12-05T03:30:17;102049.63;;;3.23;100.00
71791;BME280;59638;52.126;5.434;2022-12-05T03:37:55;102058.13;;;3.28;100.00
71791;BME280;59638;52.126;5.434;2022-12-05T03:40:28;102061.53;;;3.30;100.00
71791;BME280;59638;52.126;5.434;2022-12-05T03:43:17;102055.44;;;3.30;100.00
71791;BME280;59638;52.126;5.434;2022-12-05T03:45:53;102059.81;;;3.29;100.00
71791;BME280;59638;52.126;5.434;2022-12-05T03:48:23;102060.66;;;3.30;100.00
71791;BME280;59638;52.126;5.434;2022-12-05T03:50:54;102060.66;;;3.30;100.00
71791;BME280;59638;52.126;5.434;2022-12-05T03:53:24;102065.03;;;3.29;100.00
71791;BME280;59638;52.126;5.434;2022-12-05T03:56:10;102069.34;;;3.30;100.00
71791;BME280;59638;52.126;5.434;2022-12-05T03:58:43;102071.91;;;3.32;100.00
71791;BME280;59638;52.126;5.434;2022-12-05T04:01:12;102070.16;;;3.32;100.00
71791;BME280;59638;52.126;5.434;2022-12-05T04:03:45;102075.38;;;3.32;100.00
71791;BME280;59638;52.126;5.434;2022-12-05T04:06:21;102073.63;;;3.33;100.00
71791;BME280;59638;52.126;5.434;2022-12-05T04:08:53;102071.91;;;3.32;100.00
71791;BME280;59638;52.126;5.434;2022-12-05T04:11:22;102080.53;;;3.34;100.00
71791;BME280;59638;52.126;5.434;2022-12-05T04:13:53;102071.00;;;3.33;100.00
71791;BME280;59638;52.126;5.434;2022-12-05T04:16:28;102079.69;;;3.33;100.00
71791;BME280;59638;52.126;5.434;2022-12-05T04:19:20;102073.69;;;3.31;100.00
71791;BME280;59638;52.126;5.434;2022-12-05T04:21:52;102078.00;;;3.32;100.00
71791;BME280;59638;52.126;5.434;2022-12-05T04:24:25;102076.28;;;3.31;100.00
71791;BME280;59638;52.126;5.434;2022-12-05T04:27:27;102074.53;;;3.32;100.00
71791;BME280;59638;52.126;5.434;2022-12-05T04:30:07;102065.84;;;3.31;100.00
71791;BME280;59638;52.126;5.434;2022-12-05T04:33:24;102067.66;;;3.29;100.00
71791;BME280;59638;52.126;5.434;2022-12-05T04:35:28;102065.03;;;3.29;100.00
71791;BME280;59638;52.126;5.434;2022-12-05T04:38:01;102067.66;;;3.29;100.00
71791;BME280;59638;52.126;5.434;2022-12-05T04:40:43;102065.97;;;3.28;100.00
71791;BME280;59638;52.126;5.434;2022-12-05T04:43:15;102068.56;;;3.28;100.00
71791;BME280;59638;52.126;5.434;2022-12-05T04:45:43;102066.88;;;3.27;100.00
71791;BME280;59638;52.126;5.434;2022-12-05T04:48:13;102066.88;;;3.27;100.00
71791;BME280;59638;52.126;5.434;2022-12-05T04:50:44;102064.25;;;3.27;100.00
71791;BME280;59638;52.126;5.434;2022-12-05T04:53:12;102073.78;;;3.28;100.00
71791;BME280;59638;52.126;5.434;2022-12-05T04:55:43;102061.66;;;3.27;100.00
71791;BME280;59638;52.126;5.434;2022-12-05T04:58:16;102068.56;;;3.28;100.00
71791;BME280;59638;52.126;5.434;2022-12-05T05:03:51;102061.53;;;3.30;100.00
71791;BME280;59638;52.126;5.434;2022-12-05T05:06:20;102067.63;;;3.31;100.00
71791;BME280;59638;52.126;5.434;2022-12-05T05:08:52;102063.25;;;3.31;100.00
71791;BME280;59638;52.126;5.434;2022-12-05T05:11:25;102059.72;;;3.32;100.00
71791;BME280;59638;52.126;5.434;2022-12-05T05:13:53;102069.25;;;3.33;100.00
71791;BME280;59638;52.126;5.434;2022-12-05T05:16:22;102064.81;;;3.35;100.00
71791;BME280;59638;52.126;5.434;2022-12-05T05:18:49;102076.94;;;3.36;100.00
71791;BME280;59638;52.126;5.434;2022-12-05T05:21:27;102071.72;;;3.36;100.00
71791;BME280;59638;52.126;5.434;2022-12-05T05:23:54;102076.94;;;3.36;100.00
71791;BME280;59638;52.126;5.434;2022-12-05T05:26:22;102070.84;;;3.37;100.00
71791;BME280;59638;52.126;5.434;2022-12-05T05:28:49;102076.84;;;3.39;100.00
71791;BME280;59638;52.126;5.434;2022-12-05T05:31:17;102075.00;;;3.41;100.00
71791;BME280;59638;52.126;5.434;2022-12-05T05:33:47;102074.91;;;3.44;100.00
71791;BME280;59638;52.126;5.434;2022-12-05T05:36:14;102073.06;;;3.46;100.00
71791;BME280;59638;52.126;5.434;2022-12-05T05:38:43;102077.38;;;3.47;100.00
71791;BME280;59638;52.126;5.434;2022-12-05T05:41:15;102074.75;;;3.47;100.00
71791;BME280;59638;52.126;5.434;2022-12-05T05:43:43;102076.44;;;3.48;100.00
71791;BME280;59638;52.126;5.434;2022-12-05T05:46:10;102071.13;;;3.51;100.00
71791;BME280;59638;52.126;5.434;2022-12-05T05:48:37;102075.50;;;3.51;100.00
71791;BME280;59638;52.126;5.434;2022-12-05T05:51:06;102071.91;;;3.53;100.00
71791;BME280;59638;52.126;5.434;2022-12-05T05:53:33;102068.38;;;3.54;100.00
71791;BME280;59638;52.126;5.434;2022-12-05T05:56:04;102069.19;;;3.57;100.00
71791;BME280;59638;52.126;5.434;2022-12-05T05:58:31;102069.19;;;3.57;100.00
71791;BME280;59638;52.126;5.434;2022-12-05T06:03:31;102070.88;;;3.58;100.00
71791;BME280;59638;52.126;5.434;2022-12-05T06:05:59;102070.72;;;3.61;100.00
71791;BME280;59638;52.126;5.434;2022-12-05T06:08:29;102068.91;;;3.63;100.00
71791;BME280;59638;52.126;5.434;2022-12-05T06:10:55;102070.56;;;3.65;100.00
71791;BME280;59638;52.126;5.434;2022-12-05T06:13:22;102070.41;;;3.68;100.00
71791;BME280;59638;52.126;5.434;2022-12-05T06:15:48;102073.88;;;3.69;100.00
71791;BME280;59638;52.126;5.434;2022-12-05T06:18:15;102080.81;;;3.70;100.00
71791;BME280;59638;52.126;5.434;2022-12-05T06:20:41;102072.91;;;3.71;100.00
71791;BME280;59638;52.126;5.434;2022-12-05T06:23:07;102066.72;;;3.74;100.00
71791;BME280;59638;52.126;5.434;2022-12-05T06:25:34;102069.22;;;3.77;100.00
71791;BME280;59638;52.126;5.434;2022-12-05T06:28:00;102071.81;;;3.77;100.00
71791;BME280;59638;52.126;5.434;2022-12-05T06:30:27;102072.53;;;3.80;100.00
71791;BME280;59638;52.126;5.434;2022-12-05T06:32:53;102076.78;;;3.83;100.00
71791;BME280;59638;52.126;5.434;2022-12-05T06:35:19;102081.09;;;3.84;100.00
71791;BME280;59638;52.126;5.434;2022-12-05T06:37:46;102076.66;;;3.86;100.00
71791;BME280;59638;52.126;5.434;2022-12-05T06:40:13;102074.81;;;3.88;100.00
71791;BME280;59638;52.126;5.434;2022-12-05T06:42:39;102074.69;;;3.91;100.00
71791;BME280;59638;52.126;5.434;2022-12-05T06:45:06;102079.91;;;3.91;100.00
71791;BME280;59638;52.126;5.434;2022-12-05T06:47:32;102078.09;;;3.93;100.00
71791;BME280;59638;52.126;5.434;2022-12-05T06:49:58;102085.81;;;3.96;100.00
71791;BME280;59638;52.126;5.434;2022-12-05T06:52:25;102084.88;;;3.97;100.00
71791;BME280;59638;52.126;5.434;2022-12-05T06:54:52;102087.44;;;3.99;100.00
71791;BME280;59638;52.126;5.434;2022-12-05T06:57:18;102090.81;;;4.01;100.00
71791;BME280;59638;52.126;5.434;2022-12-05T06:59:44;102093.34;;;4.02;100.00
71791;BME280;59638;52.126;5.434;2022-12-05T07:02:11;102095.09;;;4.03;100.00
71791;BME280;59638;52.126;5.434;2022-12-05T07:04:38;102102.00;;;4.04;100.00
71791;BME280;59638;52.126;5.434;2022-12-05T07:07:04;102102.78;;;4.06;100.00
71791;BME280;59638;52.126;5.434;2022-12-05T07:09:31;102106.22;;;4.07;100.00
71791;BME280;59638;52.126;5.434;2022-12-05T07:12:17;102096.63;;;4.07;100.00
71791;BME280;59638;52.126;5.434;2022-12-05T07:14:44;102093.09;;;4.08;100.00
71791;BME280;59638;52.126;5.434;2022-12-05T07:17:14;102094.81;;;4.09;100.00
71791;BME280;59638;52.126;5.434;2022-12-05T07:19:41;102096.56;;;4.09;100.00
71791;BME280;59638;52.126;5.434;2022-12-05T07:22:07;102094.94;;;4.06;100.00
71791;BME280;59638;52.126;5.434;2022-12-05T07:24:41;102099.25;;;4.07;100.00
71791;BME280;59638;52.126;5.434;2022-12-05T07:27:07;102106.13;;;4.10;100.00
71791;BME280;59638;52.126;5.434;2022-12-05T07:29:33;102107.88;;;4.09;100.00
71791;BME280;59638;52.126;5.434;2022-12-05T07:32:00;102112.19;;;4.11;100.00
71791;BME280;59638;52.126;5.434;2022-12-05T07:34:27;102107.81;;;4.11;100.00
71791;BME280;59638;52.126;5.434;2022-12-05T07:36:53;102110.34;;;4.13;100.00
71791;BME280;59638;52.126;5.434;2022-12-05T07:39:19;102114.66;;;4.14;100.00
71791;BME280;59638;52.126;5.434;2022-12-05T07:41:46;102131.13;;;4.16;100.00
71791;BME280;59638;52.126;5.434;2022-12-05T07:44:12;102112.81;;;4.16;100.00
71791;BME280;59638;52.126;5.434;2022-12-05T07:46:39;102121.53;;;4.16;100.00
71791;BME280;59638;52.126;5.434;2022-12-05T07:49:06;102117.09;;;4.18;100.00
71791;BME280;59638;52.126;5.434;2022-12-05T07:51:33;102124.94;;;4.18;100.00
71791;BME280;59638;52.126;5.434;2022-12-05T07:54:00;102126.69;;;4.18;100.00
71791;BME280;59638;52.126;5.434;2022-12-05T07:56:27;102132.69;;;4.20;100.00
71791;BME280;59638;52.126;5.434;2022-12-05T07:58:53;102140.47;;;4.21;100.00
71791;BME280;59638;52.126;5.434;2022-12-05T08:01:24;102137.75;;;4.24;100.00
71791;BME280;59638;52.126;5.434;2022-12-05T08:03:53;102145.59;;;4.24;100.00
71791;BME280;59638;52.126;5.434;2022-12-05T08:06:22;102139.38;;;4.27;100.00
71791;BME280;59638;52.126;5.434;2022-12-05T08:08:50;102149.72;;;4.30;100.00
71791;BME280;59638;52.126;5.434;2022-12-05T08:11:22;102140.09;;;4.30;100.00
71791;BME280;59638;52.126;5.434;2022-12-05T08:13:50;102139.09;;;4.33;100.00
71791;BME280;59638;52.126;5.434;2022-12-05T08:16:19;102139.09;;;4.33;100.00
71791;BME280;59638;52.126;5.434;2022-12-05T08:18:46;102146.03;;;4.34;100.00
71791;BME280;59638;52.126;5.434;2022-12-05T08:21:16;102140.78;;;4.34;100.00
71791;BME280;59638;52.126;5.434;2022-12-05T08:23:43;102147.72;;;4.35;100.00
71791;BME280;59638;52.126;5.434;2022-12-05T08:26:17;102144.22;;;4.36;100.00
71791;BME280;59638;52.126;5.434;2022-12-05T08:28:46;102152.84;;;4.38;100.00
71791;BME280;59638;52.126;5.434;2022-12-05T08:31:15;102158.06;;;4.38;100.00
71791;BME280;59638;52.126;5.434;2022-12-05T08:33:42;102157.16;;;4.39;100.00
71791;BME280;59638;52.126;5.434;2022-12-05T08:36:11;102159.75;;;4.39;100.00
71791;BME280;59638;52.126;5.434;2022-12-05T08:38:38;102157.06;;;4.41;100.00
71791;BME280;59638;52.126;5.434;2022-12-05T08:41:08;102163.16;;;4.41;100.00
71791;BME280;59638;52.126;5.434;2022-12-05T08:43:35;102156.94;;;4.44;100.00
71791;BME280;59638;52.126;5.434;2022-12-05T08:46:02;102154.25;;;4.45;100.00
71791;BME280;59638;52.126;5.434;2022-12-05T08:48:30;102159.50;;;4.45;100.00
71791;BME280;59638;52.126;5.434;2022-12-05T08:50:58;102164.66;;;4.47;100.00
71791;BME280;59638;52.126;5.434;2022-12-05T08:53:25;102162.88;;;4.47;100.00
71791;BME280;59638;52.126;5.434;2022-12-05T08:55:51;102154.13;;;4.48;100.00
71791;BME280;59638;52.126;5.434;2022-12-05T08:58:18;102166.31;;;4.49;100.00
71791;BME280;59638;52.126;5.434;2022-12-05T09:00:44;102173.22;;;4.50;100.00
71791;BME280;59638;52.126;5.434;2022-12-05T09:03:11;102174.91;;;4.51;100.00
71791;BME280;59638;52.126;5.434;2022-12-05T09:05:37;102172.31;;;4.51;100.00
71791;BME280;59638;52.126;5.434;2022-12-05T09:08:04;102175.69;;;4.53;100.00
71791;BME280;59638;52.126;5.434;2022-12-05T09:10:31;102185.22;;;4.54;100.00
71791;BME280;59638;52.126;5.434;2022-12-05T09:12:58;102176.47;;;4.55;100.00
71791;BME280;59638;52.126;5.434;2022-12-05T09:15:25;102179.97;;;4.56;100.00
71791;BME280;59638;52.126;5.434;2022-12-05T09:17:52;102178.19;;;4.56;100.00
71791;BME280;59638;52.126;5.434;2022-12-05T09:20:18;102172.97;;;4.56;100.00
71791;BME280;59638;52.126;5.434;2022-12-05T09:22:45;102175.50;;;4.58;100.00
71791;BME280;59638;52.126;5.434;2022-12-05T09:25:11;102175.50;;;4.58;100.00
71791;BME280;59638;52.126;5.434;2022-12-05T09:27:37;102179.75;;;4.60;100.00
71791;BME280;59638;52.126;5.434;2022-12-05T09:30:05;102181.44;;;4.61;100.00
71791;BME280;59638;52.126;5.434;2022-12-05T09:32:31;102177.94;;;4.62;100.00
71791;BME280;59638;52.126;5.434;2022-12-05T09:34:58;102183.84;;;4.66;100.00
71791;BME280;59638;52.126;5.434;2022-12-05T09:37:24;102188.09;;;4.69;100.00
71791;BME280;59638;52.126;5.434;2022-12-05T09:40:09;102192.38;;;4.71;100.00
71791;BME280;59638;52.126;5.434;2022-12-05T09:42:53;102189.69;;;4.73;100.00
71791;BME280;59638;52.126;5.434;2022-12-05T09:45:27;102195.75;;;4.73;100.00
71791;BME280;59638;52.126;5.434;2022-12-05T09:48:04;102194.78;;;4.76;100.00
71791;BME280;59638;52.126;5.434;2022-12-05T09:53:23;102194.63;;;4.79;100.00
71791;BME280;59638;52.126;5.434;2022-12-05T09:56:05;102198.03;;;4.81;100.00
71791;BME280;59638;52.126;5.434;2022-12-05T09:58:54;102200.59;;;4.82;100.00
71791;BME280;59638;52.126;5.434;2022-12-05T10:07:14;102194.38;;;4.85;100.00
71791;BME280;59638;52.126;5.434;2022-12-05T10:10:09;102197.75;;;4.87;100.00
71791;BME280;59638;52.126;5.434;2022-12-05T10:16:01;102196.78;;;4.89;100.00
71791;BME280;59638;52.126;5.434;2022-12-05T10:21:17;102196.84;;;4.88;100.00
71791;BME280;59638;52.126;5.434;2022-12-05T10:26:27;102192.41;;;4.90;100.00
71791;BME280;59638;52.126;5.434;2022-12-05T10:28:56;102192.41;;;4.90;100.00
71791;BME280;59638;52.126;5.434;2022-12-05T10:31:27;102193.25;;;4.90;100.00
71791;BME280;59638;52.126;5.434;2022-12-05T10:34:43;102193.25;;;4.90;100.00
71791;BME280;59638;52.126;5.434;2022-12-05T10:37:08;102185.41;;;4.90;100.00
71791;BME280;59638;52.126;5.434;2022-12-05T10:39:36;102192.25;;;4.93;100.00
71791;BME280;59638;52.126;5.434;2022-12-05T10:42:03;102193.00;;;4.97;100.00
71791;BME280;59638;52.126;5.434;2022-12-05T10:44:31;102186.84;;;4.98;100.00
71791;BME280;59638;52.126;5.434;2022-12-05T10:46:58;102194.59;;;4.99;100.00
71791;BME280;59638;52.126;5.434;2022-12-05T10:49:25;102184.13;;;4.99;100.00
71791;BME280;59638;52.126;5.434;2022-12-05T10:51:53;102189.28;;;5.01;100.00
71791;BME280;59638;52.126;5.434;2022-12-05T10:54:22;102185.75;;;5.02;100.00
71791;BME280;59638;52.126;5.434;2022-12-05T10:56:51;102185.75;;;5.02;100.00
71791;BME280;59638;52.126;5.434;2022-12-05T10:59:36;102180.53;;;5.02;100.00
71791;BME280;59638;52.126;5.434;2022-12-05T11:02:23;102179.69;;;5.01;100.00
71791;BME280;59638;52.126;5.434;2022-12-05T11:04:51;102181.41;;;5.02;100.00
71791;BME280;59638;52.126;5.434;2022-12-05T11:07:31;102175.28;;;5.02;100.00
71791;BME280;59638;52.126;5.434;2022-12-05T11:10:00;102180.53;;;5.02;100.00
71791;BME280;59638;52.126;5.434;2022-12-05T11:12:37;102176.22;;;5.01;100.00
71791;BME280;59638;52.126;5.434;2022-12-05T11:15:19;102177.13;;;5.00;100.00
71791;BME280;59638;52.126;5.434;2022-12-05T11:17:53;102178.81;;;5.01;100.00
71791;BME280;59638;52.126;5.434;2022-12-05T11:22:51;102175.38;;;5.00;100.00
71791;BME280;59638;52.126;5.434;2022-12-05T11:25:29;102170.13;;;5.00;100.00
71791;BME280;59638;52.126;5.434;2022-12-05T11:28:22;102170.94;;;5.02;100.00
71791;BME280;59638;52.126;5.434;2022-12-05T11:33:29;102177.72;;;5.06;100.00
71791;BME280;59638;52.126;5.434;2022-12-05T11:36:02;102168.94;;;5.07;100.00
71791;BME280;59638;52.126;5.434;2022-12-05T11:38:29;102178.47;;;5.08;100.00
71791;BME280;59638;52.126;5.434;2022-12-05T11:41:27;102171.44;;;5.10;100.00
71791;BME280;59638;52.126;5.434;2022-12-05T11:49:44;102181.09;;;5.08;100.00
71791;BME280;59638;52.126;5.434;2022-12-05T11:55:22;102171.44;;;5.10;100.00
71791;BME280;59638;52.126;5.434;2022-12-05T11:58:11;102175.00;;;5.08;100.00
71791;BME280;59638;52.126;5.434;2022-12-05T12:01:10;102171.53;;;5.07;100.00
71791;BME280;59638;52.126;5.434;2022-12-05T12:04:14;102179.28;;;5.10;100.00
71791;BME280;59638;52.126;5.434;2022-12-05T12:07:06;102172.19;;;5.12;100.00
71791;BME280;59638;52.126;5.434;2022-12-05T12:10:01;102172.19;;;5.12;100.00
71791;BME280;59638;52.126;5.434;2022-12-05T12:15:37;102178.00;;;5.19;100.00
71791;BME280;59638;52.126;5.434;2022-12-05T12:24:10;102174.69;;;5.15;100.00
71791;BME280;59638;52.126;5.434;2022-12-05T12:29:30;102167.69;;;5.16;100.00
71791;BME280;59638;52.126;5.434;2022-12-05T12:40:50;102162.56;;;5.13;100.00
71791;BME280;59638;52.126;5.434;2022-12-05T12:49:16;102161.03;;;5.09;100.00
71791;BME280;59638;52.126;5.434;2022-12-05T12:51:52;102157.50;;;5.10;100.00
71791;BME280;59638;52.126;5.434;2022-12-05T12:57:33;102148.00;;;5.07;100.00
71791;BME280;59638;52.126;5.434;2022-12-05T13:00:21;102147.03;;;5.10;100.00
71791;BME280;59638;52.126;5.434;2022-12-05T13:03:21;102145.34;;;5.09;100.00
71791;BME280;59638;52.126;5.434;2022-12-05T13:05:57;102144.44;;;5.08;100.00
71791;BME280;59638;52.126;5.434;2022-12-05T13:08:42;102147.88;;;5.10;100.00
71791;BME280;59638;52.126;5.434;2022-12-05T13:11:12;102144.44;;;5.08;100.00
71791;BME280;59638;52.126;5.434;2022-12-05T13:13:45;102143.69;;;5.06;100.00
71791;BME280;59638;52.126;5.434;2022-12-05T13:16:21;102147.31;;;5.04;100.00
71791;BME280;59638;52.126;5.434;2022-12-05T13:18:49;102143.84;;;5.03;100.00
71791;BME280;59638;52.126;5.434;2022-12-05T13:21:15;102149.19;;;5.00;100.00
71791;BME280;59638;52.126;5.434;2022-12-05T13:23:47;102148.28;;;5.01;100.00
71791;BME280;59638;52.126;5.434;2022-12-05T13:26:15;102146.59;;;5.00;100.00
71791;BME280;59638;52.126;5.434;2022-12-05T13:28:54;102159.66;;;5.00;100.00
71791;BME280;59638;52.126;5.434;2022-12-05T13:31:43;102144.97;;;4.98;100.00
71791;BME280;59638;52.126;5.434;2022-12-05T13:37:09;102152.94;;;4.95;100.00
71791;BME280;59638;52.126;5.434;2022-12-05T13:39:56;102154.09;;;4.89;100.00
71791;BME280;59638;52.126;5.434;2022-12-05T13:42:43;102150.66;;;4.87;100.00
71791;BME280;59638;52.126;5.434;2022-12-05T13:45:14;102154.38;;;4.83;100.00
71791;BME280;59638;52.126;5.434;2022-12-05T13:50:34;102159.72;;;4.80;100.00
71791;BME280;59638;52.126;5.434;2022-12-05T13:53:22;102161.41;;;4.81;100.00
71791;BME280;59638;52.126;5.434;2022-12-05T13:58:50;102164.09;;;4.79;100.00
71791;BME280;59638;52.126;5.434;2022-12-05T14:01:44;102157.25;;;4.77;100.00
71791;BME280;59638;52.126;5.434;2022-12-05T14:04:43;102159.00;;;4.76;100.00
71791;BME280;59638;52.126;5.434;2022-12-05T14:07:11;102158.94;;;4.78;100.00
71791;BME280;59638;52.126;5.434;2022-12-05T14:09:53;102155.47;;;4.77;100.00
71791;BME280;59638;52.126;5.434;2022-12-05T14:17:29;102158.16;;;4.76;100.00
71791;BME280;59638;52.126;5.434;2022-12-05T14:34:30;102161.56;;;4.78;100.00
71791;BME280;59638;52.126;5.434;2022-12-05T14:36:59;102162.47;;;4.77;100.00
71791;BME280;59638;52.126;5.434;2022-12-05T14:39:39;102163.31;;;4.77;100.00
71791;BME280;59638;52.126;5.434;2022-12-05T14:45:37;102164.28;;;4.75;100.00
71791;BME280;59638;52.126;5.434;2022-12-05T14:48:26;102170.44;;;4.74;100.00
71791;BME280;59638;52.126;5.434;2022-12-05T14:50:55;102171.28;;;4.74;100.00
71791;BME280;59638;52.126;5.434;2022-12-05T14:53:38;102165.22;;;4.74;100.00
71791;BME280;59638;52.126;5.434;2022-12-05T14:56:22;102176.47;;;4.76;100.00
71791;BME280;59638;52.126;5.434;2022-12-05T14:58:58;102173.88;;;4.76;100.00
71791;BME280;59638;52.126;5.434;2022-12-05T15:01:33;102174.72;;;4.76;100.00
71791;BME280;59638;52.126;5.434;2022-12-05T15:04:05;102172.13;;;4.75;100.00
71791;BME280;59638;52.126;5.434;2022-12-05T15:06:43;102187.84;;;4.75;100.00
71791;BME280;59638;52.126;5.434;2022-12-05T15:09:27;102187.84;;;4.75;100.00
71791;BME280;59638;52.126;5.434;2022-12-05T15:12:05;102187.84;;;4.75;100.00
71791;BME280;59638;52.126;5.434;2022-12-05T15:15:03;102193.91;;;4.75;100.00
71791;BME280;59638;52.126;5.434;2022-12-05T15:17:36;102188.69;;;4.75;100.00
71791;BME280;59638;52.126;5.434;2022-12-05T15:20:10;102191.38;;;4.74;100.00
71791;BME280;59638;52.126;5.434;2022-12-05T15:22:40;102196.59;;;4.74;100.00
71791;BME280;59638;52.126;5.434;2022-12-05T15:25:20;102200.13;;;4.73;100.00